Time;durP1;ratioP1;P1;durP2;ratioP2;P2;SDS_P1;SDS_P2;PMS_P1;PMS_P2;Temp;Humidity;BMP_temperature;BMP_pressure;BME280_temperature;BME280_humidity;BME280_pressure;Samples;Min_cycle;Max_cycle;Signal;HPM_P1;HPM_P2
2022/05/21 00:01:53;;;;;;;11.65;6.10;;;19.60;99.90;;;;;;4993833;28;20038;-77
2022/05/21 00:04:19;;;;;;;11.75;5.85;;;19.50;99.90;;;;;;4979634;28;20499;-77
2022/05/21 00:06:45;;;;;;;11.00;6.28;;;19.40;99.90;;;;;;4974054;28;20030;-79
2022/05/21 00:09:10;;;;;;;11.98;5.95;;;19.20;99.90;;;;;;4973905;28;20027;-78
2022/05/21 00:11:38;;;;;;;16.95;6.40;;;19.20;99.90;;;;;;4973931;28;20027;-78
2022/05/21 00:14:04;;;;;;;12.70;6.82;;;19.10;99.90;;;;;;4980178;28;20468;-78
2022/05/21 00:16:30;;;;;;;10.13;6.03;;;19.00;99.90;;;;;;4993079;28;20061;-79
2022/05/21 00:18:56;;;;;;;11.57;6.28;;;18.90;99.90;;;;;;4993007;28;20057;-78
2022/05/21 00:21:23;;;;;;;10.15;5.72;;;18.90;99.90;;;;;;4993290;28;20104;-78
2022/05/21 00:23:50;;;;;;;11.77;5.95;;;18.80;99.90;;;;;;4993016;28;20030;-78
2022/05/21 00:26:16;;;;;;;9.65;5.40;;;18.70;99.90;;;;;;4992808;28;20022;-78
2022/05/21 00:28:44;;;;;;;13.27;6.57;;;18.70;99.90;;;;;;4992262;28;20061;-78
2022/05/21 00:31:13;;;;;;;10.73;6.30;;;18.70;99.90;;;;;;4992450;28;20022;-78
2022/05/21 00:33:38;;;;;;;10.38;5.93;;;18.60;99.90;;;;;;4992486;28;20026;-78
2022/05/21 00:36:07;;;;;;;12.88;6.50;;;18.60;99.90;;;;;;4991862;28;20038;-78
2022/05/21 00:38:32;;;;;;;12.00;5.75;;;18.50;99.90;;;;;;4992675;28;20492;-79
2022/05/21 00:40:58;;;;;;;10.20;5.90;;;18.50;99.90;;;;;;4992471;28;20101;-78
2022/05/21 00:43:36;;;;;;;9.55;5.70;;;18.50;99.90;;;;;;4992325;28;20506;-78
2022/05/21 00:46:03;;;;;;;11.07;5.38;;;18.40;99.90;;;;;;4992746;28;20027;-78
2022/05/21 00:48:29;;;;;;;7.90;4.85;;;18.50;99.90;;;;;;4992717;28;20034;-79
2022/05/21 00:50:55;;;;;;;10.05;4.63;;;18.40;99.90;;;;;;4963589;28;20031;-79
2022/05/21 00:53:21;;;;;;;6.47;4.70;;;18.40;99.90;;;;;;4955523;28;20027;-77
2022/05/21 00:55:49;;;;;;;9.45;5.05;;;18.30;99.90;;;;;;4985322;28;20026;-77
2022/05/21 01:01:03;;;;;;;9.23;4.43;;;18.30;99.90;;;;;;4992411;28;20153;-78
2022/05/21 01:03:30;;;;;;;7.30;4.75;;;18.30;99.90;;;;;;4992243;28;20535;-78
2022/05/21 01:05:58;;;;;;;6.82;4.78;;;18.30;99.90;;;;;;4992418;28;20057;-78
2022/05/21 01:08:24;;;;;;;8.50;4.55;;;18.20;99.90;;;;;;4992083;28;20503;-78
2022/05/21 01:10:57;;;;;;;7.75;4.70;;;18.20;99.90;;;;;;4991870;28;20419;-77
2022/05/21 01:13:26;;;;;;;10.52;5.43;;;18.20;99.90;;;;;;4992420;28;20384;-77
2022/05/21 01:15:53;;;;;;;8.93;4.72;;;18.20;99.90;;;;;;4992253;28;20026;-77
2022/05/21 01:18:20;;;;;;;9.07;5.40;;;18.20;99.90;;;;;;4992058;28;20029;-77
2022/05/21 01:20:52;;;;;;;11.15;5.18;;;18.20;99.90;;;;;;4974590;28;20034;-77
2022/05/21 01:23:19;;;;;;;8.88;4.97;;;18.10;99.90;;;;;;4991916;28;20113;-78
2022/05/21 01:25:46;;;;;;;8.85;4.80;;;18.00;99.90;;;;;;4974527;28;20106;-77
2022/05/21 01:28:14;;;;;;;11.55;5.38;;;17.90;99.90;;;;;;4991786;28;20109;-77
2022/05/21 01:30:39;;;;;;;13.65;5.05;;;17.90;99.90;;;;;;4991831;28;20026;-77
2022/05/21 01:33:07;;;;;;;9.40;4.50;;;17.80;99.90;;;;;;4974334;28;20100;-78
2022/05/21 01:35:33;;;;;;;9.93;5.07;;;17.80;99.90;;;;;;4974552;28;20129;-78
2022/05/21 01:37:59;;;;;;;7.97;4.78;;;17.70;99.90;;;;;;4992113;28;20458;-79
2022/05/21 01:40:25;;;;;;;11.68;5.03;;;17.60;99.90;;;;;;4992057;28;20023;-78
2022/05/21 01:45:36;;;;;;;8.27;5.37;;;17.50;99.90;;;;;;4991495;28;20038;-78
2022/05/21 01:48:03;;;;;;;7.85;4.70;;;17.40;99.90;;;;;;4986420;28;20362;-78
2022/05/21 01:50:29;;;;;;;8.75;5.28;;;17.30;99.90;;;;;;4992032;28;20030;-78
2022/05/21 01:52:55;;;;;;;9.52;5.00;;;17.20;99.90;;;;;;4991832;28;20030;-78
2022/05/21 01:55:21;;;;;;;8.48;5.30;;;17.20;99.90;;;;;;4973813;28;20511;-78
2022/05/21 01:57:46;;;;;;;9.45;4.68;;;17.10;99.90;;;;;;4974747;28;20035;-77
2022/05/21 02:00:13;;;;;;;8.32;4.97;;;17.10;99.90;;;;;;4972427;28;20101;-78
2022/05/21 02:02:38;;;;;;;9.52;5.07;;;17.10;99.90;;;;;;4972616;28;20069;-78
2022/05/21 02:05:05;;;;;;;9.25;5.13;;;17.10;99.90;;;;;;4972673;28;20051;-78
2022/05/21 02:07:32;;;;;;;9.25;5.40;;;17.00;99.90;;;;;;4972659;28;20042;-78
2022/05/21 02:09:58;;;;;;;8.18;5.20;;;17.10;99.90;;;;;;4975438;28;20027;-78
2022/05/21 02:12:24;;;;;;;9.68;5.47;;;17.10;99.90;;;;;;4995463;28;20056;-78
2022/05/21 02:14:50;;;;;;;10.43;5.45;;;17.10;99.90;;;;;;4978363;28;20026;-78
2022/05/21 02:17:16;;;;;;;10.38;5.50;;;17.10;99.90;;;;;;4976120;28;20034;-77
2022/05/21 02:19:43;;;;;;;9.23;5.72;;;17.10;99.90;;;;;;4975413;28;20031;-77
2022/05/21 02:22:08;;;;;;;13.38;7.45;;;17.10;99.90;;;;;;4974848;28;20050;-78
2022/05/21 02:24:34;;;;;;;10.05;6.85;;;17.10;99.90;;;;;;4974457;28;20031;-78
2022/05/21 02:27:00;;;;;;;12.30;8.27;;;17.10;99.90;;;;;;4974771;28;20027;-78
2022/05/21 02:29:25;;;;;;;9.65;7.75;;;17.10;99.90;;;;;;4975358;28;20060;-77
2022/05/21 02:31:51;;;;;;;11.82;6.95;;;17.00;99.90;;;;;;4975092;28;20031;-77
2022/05/21 02:34:17;;;;;;;10.68;6.28;;;17.00;99.90;;;;;;4974933;28;20089;-78
2022/05/21 02:39:29;;;;;;;9.57;6.57;;;17.00;99.90;;;;;;4976911;28;20046;-78
2022/05/21 02:41:56;;;;;;;10.23;6.25;;;17.00;99.90;;;;;;4975877;28;20027;-78
2022/05/21 02:44:23;;;;;;;9.57;6.63;;;17.00;99.90;;;;;;4976119;28;20031;-78
2022/05/21 02:46:48;;;;;;;8.60;6.22;;;17.00;99.90;;;;;;4975872;28;20110;-77
2022/05/21 02:49:14;;;;;;;7.85;6.10;;;17.00;99.90;;;;;;4976098;28;20089;-78
2022/05/21 02:51:40;;;;;;;10.80;6.47;;;17.00;99.90;;;;;;4975958;28;20110;-78
2022/05/21 02:54:06;;;;;;;9.48;6.45;;;17.00;99.90;;;;;;4984024;28;20454;-78
2022/05/21 02:56:35;;;;;;;10.70;6.07;;;17.00;99.90;;;;;;4986363;28;20026;-78
2022/05/21 02:59:06;;;;;;;8.57;5.40;;;17.00;99.90;;;;;;4995172;28;20022;-77
2022/05/21 03:01:33;;;;;;;8.00;5.60;;;17.00;99.90;;;;;;4994824;28;20030;-77
2022/05/21 03:03:59;;;;;;;9.98;5.50;;;17.00;99.90;;;;;;4988633;28;20030;-77
2022/05/21 03:06:25;;;;;;;8.10;5.55;;;17.00;99.90;;;;;;4975008;28;20023;-77
2022/05/21 03:11:34;;;;;;;10.48;6.00;;;17.00;99.90;;;;;;4975177;28;20106;-77
2022/05/21 03:14:00;;;;;;;8.57;5.20;;;17.00;99.90;;;;;;4968863;28;20400;-77
2022/05/21 03:16:25;;;;;;;7.00;4.90;;;16.90;99.90;;;;;;4976952;28;20030;-77
2022/05/21 03:18:51;;;;;;;7.20;5.00;;;16.90;99.90;;;;;;4994099;28;20037;-77
2022/05/21 03:21:18;;;;;;;8.30;4.95;;;16.90;99.90;;;;;;4976068;28;20439;-77
2022/05/21 03:23:43;;;;;;;8.57;4.90;;;16.90;99.90;;;;;;4976465;28;20480;-77
2022/05/21 03:26:09;;;;;;;5.47;4.68;;;16.90;99.90;;;;;;4993844;28;20046;-77
2022/05/21 03:28:34;;;;;;;10.30;5.53;;;16.90;99.90;;;;;;4977301;28;20035;-77
2022/05/21 03:31:00;;;;;;;9.00;4.95;;;16.90;99.90;;;;;;4974534;28;20105;-77
2022/05/21 03:33:25;;;;;;;9.40;5.53;;;16.90;99.90;;;;;;4957165;28;20030;-77
2022/05/21 03:35:51;;;;;;;7.40;5.18;;;16.80;99.90;;;;;;4974619;28;20105;-77
2022/05/21 03:38:19;;;;;;;7.57;4.75;;;16.80;99.90;;;;;;4974701;28;20034;-77
2022/05/21 03:40:44;;;;;;;7.80;4.70;;;16.70;99.90;;;;;;4974641;28;20093;-78
2022/05/21 03:43:10;;;;;;;9.10;4.95;;;16.70;99.90;;;;;;4989327;28;20038;-77
2022/05/21 03:45:36;;;;;;;7.05;4.63;;;16.70;99.90;;;;;;4993404;28;20026;-78
2022/05/21 03:48:05;;;;;;;7.90;4.40;;;16.70;99.90;;;;;;4974246;28;20027;-78
2022/05/21 03:50:32;;;;;;;7.32;5.15;;;16.70;99.90;;;;;;4974441;28;20030;-78
2022/05/21 03:52:58;;;;;;;8.18;4.65;;;16.60;99.90;;;;;;4983506;28;20031;-78
2022/05/21 03:55:23;;;;;;;8.38;4.82;;;16.60;99.90;;;;;;4982118;28;20031;-78
2022/05/21 03:57:49;;;;;;;10.20;4.82;;;16.60;99.90;;;;;;4973696;28;20081;-78
2022/05/21 04:00:16;;;;;;;7.50;4.50;;;16.60;99.90;;;;;;4974025;28;20034;-78
2022/05/21 04:02:42;;;;;;;5.93;4.70;;;16.50;99.90;;;;;;4973629;28;20030;-77
2022/05/21 04:05:10;;;;;;;7.13;4.65;;;16.50;99.90;;;;;;4973811;28;20025;-77
2022/05/21 04:07:36;;;;;;;8.98;4.70;;;16.40;99.90;;;;;;4982275;28;20051;-78
2022/05/21 04:10:02;;;;;;;7.28;4.45;;;16.40;99.90;;;;;;4992967;28;20030;-78
2022/05/21 04:12:28;;;;;;;7.88;4.60;;;16.40;99.90;;;;;;4992946;28;20023;-78
2022/05/21 04:14:53;;;;;;;10.70;4.70;;;16.40;99.90;;;;;;4993457;28;20421;-76
2022/05/21 04:17:19;;;;;;;9.23;4.95;;;16.40;99.90;;;;;;4991200;28;20865;-76
2022/05/21 04:19:44;;;;;;;7.25;5.13;;;16.40;99.90;;;;;;4993223;28;20416;-76
2022/05/21 04:22:10;;;;;;;6.18;4.28;;;16.40;99.90;;;;;;4975788;28;20117;-76
2022/05/21 04:24:36;;;;;;;7.03;4.40;;;16.40;99.90;;;;;;4975133;28;20117;-76
2022/05/21 04:27:02;;;;;;;8.57;4.65;;;16.50;99.90;;;;;;4973413;28;20031;-76
2022/05/21 04:29:28;;;;;;;10.23;4.65;;;16.50;99.90;;;;;;4973338;28;20030;-76
2022/05/21 04:31:53;;;;;;;8.18;4.72;;;16.50;99.90;;;;;;4981886;28;20022;-76
2022/05/21 04:34:19;;;;;;;6.80;4.80;;;16.50;99.90;;;;;;4999699;28;20403;-78
2022/05/21 04:36:44;;;;;;;6.63;4.60;;;16.60;99.90;;;;;;4996241;28;20038;-79
2022/05/21 04:39:10;;;;;;;7.68;4.82;;;16.60;99.90;;;;;;4983268;28;20470;-78
2022/05/21 04:41:36;;;;;;;6.80;4.22;;;16.60;99.90;;;;;;5005128;28;20029;-79
2022/05/21 04:44:03;;;;;;;7.88;4.00;;;16.60;99.90;;;;;;5005160;28;20029;-78
2022/05/21 04:46:30;;;;;;;6.20;3.95;;;16.60;99.90;;;;;;5002650;28;20112;-78
2022/05/21 04:48:56;;;;;;;7.10;4.18;;;16.60;99.90;;;;;;5004181;28;20072;-78
2022/05/21 04:51:22;;;;;;;6.78;4.20;;;16.60;99.90;;;;;;5001873;28;20424;-78
2022/05/21 04:53:47;;;;;;;5.38;3.90;;;16.60;99.90;;;;;;5001786;28;20034;-79
2022/05/21 04:56:13;;;;;;;5.97;3.90;;;16.60;99.90;;;;;;5005753;28;20080;-79
2022/05/21 04:58:39;;;;;;;5.40;3.20;;;16.60;99.90;;;;;;5006778;28;20022;-78
2022/05/21 05:01:05;;;;;;;5.07;3.38;;;16.70;99.90;;;;;;5005373;28;20079;-78
2022/05/21 05:03:32;;;;;;;5.78;2.95;;;16.70;99.90;;;;;;5002793;28;20030;-79
2022/05/21 05:05:58;;;;;;;6.55;2.90;;;16.60;99.90;;;;;;5000343;28;20065;-78
2022/05/21 05:08:24;;;;;;;4.45;3.15;;;16.60;99.90;;;;;;5002925;28;20076;-78
2022/05/21 05:10:50;;;;;;;3.80;2.88;;;16.50;99.90;;;;;;5005479;28;20032;-78
2022/05/21 05:13:16;;;;;;;5.55;3.00;;;16.50;99.90;;;;;;5004497;28;20022;-78
2022/05/21 05:15:46;;;;;;;5.22;3.15;;;16.60;99.90;;;;;;4994341;28;20030;-78
2022/05/21 05:18:23;;;;;;;6.53;3.05;;;16.60;99.90;;;;;;4994761;28;20084;-78
2022/05/21 05:20:49;;;;;;;4.65;2.65;;;16.60;99.90;;;;;;5004716;28;20026;-78
2022/05/21 05:23:15;;;;;;;5.85;3.10;;;16.60;99.90;;;;;;5000190;28;20031;-78
2022/05/21 05:25:41;;;;;;;4.97;2.83;;;16.70;99.90;;;;;;4979600;28;20030;-78
2022/05/21 05:28:17;;;;;;;6.15;2.92;;;16.70;99.90;;;;;;5000337;28;20030;-78
2022/05/21 05:30:42;;;;;;;5.15;3.10;;;16.70;99.90;;;;;;5003183;28;20038;-78
2022/05/21 05:33:08;;;;;;;6.80;2.70;;;16.70;99.90;;;;;;5000377;28;20057;-79
2022/05/21 05:35:34;;;;;;;5.93;2.90;;;16.80;99.90;;;;;;5003010;28;20566;-78
2022/05/21 05:38:04;;;;;;;3.78;2.75;;;16.80;99.90;;;;;;4997094;28;20530;-78
2022/05/21 05:40:32;;;;;;;10.27;2.67;;;16.90;99.90;;;;;;5003562;28;20052;-79
2022/05/21 05:42:57;;;;;;;3.55;2.35;;;17.00;99.90;;;;;;4996298;28;20018;-79
2022/05/21 05:45:23;;;;;;;5.57;2.80;;;17.00;99.90;;;;;;5008695;28;20088;-79
2022/05/21 05:47:51;;;;;;;6.15;3.08;;;17.10;99.90;;;;;;5006611;28;20045;-79
2022/05/21 05:50:17;;;;;;;4.80;2.40;;;17.20;99.90;;;;;;5006619;28;20826;-79
2022/05/21 05:52:42;;;;;;;4.68;2.45;;;17.20;99.90;;;;;;5001595;28;20052;-78
2022/05/21 05:55:08;;;;;;;5.95;2.60;;;17.20;99.90;;;;;;5003271;28;20029;-79
2022/05/21 05:57:34;;;;;;;4.63;2.40;;;17.20;99.90;;;;;;5003955;28;20364;-79
2022/05/21 06:00:00;;;;;;;4.22;2.60;;;17.20;99.90;;;;;;5006975;28;20042;-79
2022/05/21 06:05:18;;;;;;;4.30;2.65;;;17.40;99.90;;;;;;5003020;28;20454;-70
2022/05/21 06:07:47;;;;;;;4.63;2.50;;;17.50;99.90;;;;;;5003681;28;20113;-70
2022/05/21 06:10:15;;;;;;;3.67;2.13;;;17.50;99.90;;;;;;5000270;28;20081;-71
2022/05/21 06:12:41;;;;;;;4.15;2.22;;;17.60;99.90;;;;;;4987341;28;20030;-72
2022/05/21 06:15:09;;;;;;;4.10;2.00;;;17.70;99.90;;;;;;5000602;28;20054;-71
2022/05/21 06:17:34;;;;;;;2.50;2.00;;;17.70;99.90;;;;;;4999969;28;20038;-71
2022/05/21 06:20:00;;;;;;;5.28;2.20;;;17.90;99.90;;;;;;5003462;28;20018;-71
2022/05/21 06:22:25;;;;;;;4.32;2.22;;;17.90;99.90;;;;;;5002784;28;20800;-71
2022/05/21 06:24:51;;;;;;;4.05;2.15;;;17.90;99.90;;;;;;5007010;28;20026;-71
2022/05/21 06:27:17;;;;;;;5.88;2.05;;;18.00;99.90;;;;;;5009071;28;20026;-71
2022/05/21 06:29:42;;;;;;;2.70;1.90;;;18.00;99.90;;;;;;4987702;28;20026;-71
2022/05/21 06:32:08;;;;;;;4.07;2.10;;;18.20;99.90;;;;;;5002708;28;20054;-71
2022/05/21 06:34:37;;;;;;;4.00;2.17;;;18.30;99.90;;;;;;5005902;28;20089;-71
2022/05/21 06:37:09;;;;;;;3.42;2.25;;;18.50;99.90;;;;;;5006672;28;20112;-72
2022/05/21 06:39:36;;;;;;;5.47;2.13;;;18.60;99.90;;;;;;5002611;28;20092;-72
2022/05/21 06:42:02;;;;;;;3.78;2.10;;;18.60;99.90;;;;;;5010091;28;20398;-72
2022/05/21 06:44:28;;;;;;;3.35;1.98;;;18.50;99.90;;;;;;5013441;28;20081;-72
2022/05/21 06:46:54;;;;;;;2.80;2.00;;;18.40;99.90;;;;;;5012540;28;20038;-71
2022/05/21 06:49:21;;;;;;;3.28;1.90;;;18.30;99.90;;;;;;5012414;28;20033;-71
2022/05/21 06:51:47;;;;;;;5.45;2.38;;;18.20;99.90;;;;;;5007366;28;20074;-70
2022/05/21 06:54:13;;;;;;;3.78;1.80;;;18.20;99.90;;;;;;5002448;28;20036;-68
2022/05/21 06:56:41;;;;;;;6.03;2.22;;;18.30;99.90;;;;;;5004788;28;20141;-68
2022/05/21 06:59:06;;;;;;;5.65;2.30;;;18.30;99.90;;;;;;5007383;28;20030;-69
2022/05/21 07:01:32;;;;;;;5.32;2.05;;;18.30;99.90;;;;;;4998353;28;20038;-68
2022/05/21 07:03:58;;;;;;;2.90;1.90;;;18.30;99.90;;;;;;5003721;28;20052;-69
2022/05/21 07:09:08;;;;;;;2.60;1.92;;;18.40;99.90;;;;;;4999745;28;20088;-69
2022/05/21 07:11:34;;;;;;;2.90;2.10;;;18.50;99.90;;;;;;5002627;28;20085;-69
2022/05/21 07:14:00;;;;;;;3.47;2.33;;;18.70;99.90;;;;;;5002081;28;20033;-70
2022/05/21 07:16:26;;;;;;;3.22;2.08;;;18.80;99.90;;;;;;5000856;28;20034;-69
2022/05/21 07:18:51;;;;;;;3.25;2.08;;;18.70;99.90;;;;;;4997898;28;20034;-69
2022/05/21 07:21:18;;;;;;;4.25;2.28;;;18.70;99.90;;;;;;5006004;28;20045;-69
2022/05/21 07:23:45;;;;;;;4.95;2.38;;;18.80;99.90;;;;;;5007229;28;20026;-68
2022/05/21 07:26:11;;;;;;;3.58;2.08;;;18.90;99.90;;;;;;5008816;28;20026;-69
2022/05/21 07:28:37;;;;;;;5.72;2.10;;;18.90;99.90;;;;;;5002882;28;20103;-69
2022/05/21 07:31:03;;;;;;;5.50;2.28;;;18.80;99.90;;;;;;5006068;28;20482;-69
2022/05/21 07:33:28;;;;;;;8.88;2.38;;;18.80;99.90;;;;;;5001243;28;20756;-68
2022/05/21 07:35:54;;;;;;;3.20;2.10;;;18.90;99.90;;;;;;4996832;28;20053;-71
2022/05/21 07:38:19;;;;;;;5.03;2.00;;;18.90;99.90;;;;;;4996553;28;20037;-69
2022/05/21 07:40:47;;;;;;;3.95;2.42;;;18.90;99.90;;;;;;4994333;28;20022;-69
2022/05/21 07:43:19;;;;;;;3.72;2.10;;;18.90;99.90;;;;;;4996183;28;20050;-69
2022/05/21 07:45:45;;;;;;;4.30;2.10;;;18.90;99.90;;;;;;4996513;28;20029;-70
2022/05/21 07:48:13;;;;;;;2.80;2.00;;;18.90;99.90;;;;;;4995236;28;20371;-70
2022/05/21 07:50:44;;;;;;;3.92;2.13;;;19.00;99.90;;;;;;4995930;28;20097;-69
2022/05/21 07:53:17;;;;;;;3.35;1.90;;;19.10;99.90;;;;;;4995200;28;20100;-69
2022/05/21 07:55:45;;;;;;;4.32;2.05;;;19.00;99.90;;;;;;4984841;28;20031;-73
2022/05/21 07:58:11;;;;;;;7.60;2.20;;;19.10;99.90;;;;;;4985619;28;20022;-73
2022/05/21 08:00:37;;;;;;;4.53;2.00;;;19.10;99.90;;;;;;5000212;28;20030;-73
2022/05/21 08:03:03;;;;;;;5.43;2.00;;;19.10;99.90;;;;;;5009196;28;20041;-73
2022/05/21 08:05:29;;;;;;;4.75;2.00;;;19.10;99.90;;;;;;5008823;28;20021;-72
2022/05/21 08:07:54;;;;;;;2.83;1.92;;;19.10;99.90;;;;;;5002487;28;20022;-72
2022/05/21 08:10:22;;;;;;;4.43;2.13;;;19.10;99.90;;;;;;4989588;28;20109;-73
2022/05/21 08:12:49;;;;;;;3.10;2.10;;;19.10;99.90;;;;;;4988943;28;20022;-73
2022/05/21 08:15:15;;;;;;;3.63;1.80;;;19.20;99.90;;;;;;4984556;28;20027;-72
2022/05/21 08:17:41;;;;;;;3.88;2.10;;;19.00;99.90;;;;;;4979844;28;20035;-73
2022/05/21 08:20:07;;;;;;;2.67;1.80;;;19.10;99.90;;;;;;4988725;28;20138;-72
2022/05/21 08:28:01;;;;;;;2.57;1.53;;;19.40;99.90;;;;;;4998424;28;20437;-73
2022/05/21 08:30:26;;;;;;;3.35;1.50;;;19.30;99.90;;;;;;4971866;28;20352;-80
2022/05/21 08:33:04;;;;;;;4.38;1.50;;;19.20;99.90;;;;;;4992496;28;20050;-81
2022/05/21 08:35:30;;;;;;;3.88;1.52;;;19.30;99.90;;;;;;4992112;28;20046;-81
2022/05/21 08:37:55;;;;;;;2.33;1.60;;;19.30;99.90;;;;;;4992050;28;20034;-81
2022/05/21 08:40:22;;;;;;;2.72;1.73;;;19.40;99.90;;;;;;4991614;28;20054;-81
2022/05/21 08:42:55;;;;;;;2.55;1.50;;;19.50;99.90;;;;;;4991334;28;20030;-80
2022/05/21 08:45:24;;;;;;;1.83;1.42;;;19.60;99.90;;;;;;4991121;28;20124;-81
2022/05/21 08:48:05;;;;;;;3.58;1.45;;;19.70;99.90;;;;;;4991805;28;20775;-80
2022/05/21 08:50:34;;;;;;;2.67;1.58;;;19.70;99.90;;;;;;4990734;28;20022;-81
2022/05/21 08:53:15;;;;;;;12.63;1.73;;;19.80;99.90;;;;;;4993713;28;20081;-80
2022/05/21 08:55:48;;;;;;;3.65;1.60;;;19.80;99.90;;;;;;4976481;28;20052;-81
2022/05/21 08:58:38;;;;;;;2.45;1.30;;;19.90;99.90;;;;;;4968492;28;20041;-81
2022/05/21 09:01:04;;;;;;;4.38;1.80;;;20.10;99.90;;;;;;4993398;28;20036;-81
2022/05/21 09:03:30;;;;;;;3.15;1.88;;;20.20;99.90;;;;;;4992908;28;20030;-81
2022/05/21 09:06:02;;;;;;;3.70;1.77;;;20.20;99.90;;;;;;4995286;28;20092;-81
2022/05/21 09:08:39;;;;;;;2.35;1.60;;;20.30;99.90;;;;;;4976151;28;20030;-80
2022/05/21 09:11:14;;;;;;;4.65;1.60;;;20.30;99.90;;;;;;4976235;28;20027;-81
2022/05/21 09:13:44;;;;;;;3.63;1.50;;;20.40;99.90;;;;;;4993331;28;20023;-80
2022/05/21 09:19:04;;;;;;;3.72;2.20;;;20.60;99.90;;;;;;4992656;28;20116;-80
2022/05/21 09:21:32;;;;;;;3.13;1.73;;;20.70;99.90;;;;;;4993456;28;20030;-81
2022/05/21 09:24:02;;;;;;;6.35;1.60;;;20.90;99.90;;;;;;4992540;28;20419;-82
2022/05/21 09:26:39;;;;;;;2.35;1.38;;;20.90;99.90;;;;;;4991982;28;20026;-82
2022/05/21 09:29:28;;;;;;;4.07;1.25;;;21.10;99.90;;;;;;4992956;28;20428;-82
2022/05/21 09:31:55;;;;;;;3.05;1.35;;;21.20;99.90;;;;;;4993346;28;20034;-79
2022/05/21 09:34:32;;;;;;;2.28;1.33;;;21.60;99.90;;;;;;4992932;28;20058;-79
2022/05/21 09:37:00;;;;;;;3.05;1.20;;;22.10;99.90;;;;;;4974768;28;20104;-79
2022/05/21 09:39:33;;;;;;;2.95;1.40;;;22.60;99.90;;;;;;4975041;28;20035;-79
2022/05/21 09:42:07;;;;;;;2.30;1.27;;;22.70;99.90;;;;;;4984162;28;20042;-79
2022/05/21 09:47:26;;;;;;;2.63;1.25;;;22.70;99.90;;;;;;4973009;28;20066;-79
2022/05/21 09:50:00;;;;;;;2.20;1.13;;;22.80;99.90;;;;;;4972771;28;20464;-80
2022/05/21 09:52:30;;;;;;;2.60;1.20;;;23.00;99.90;;;;;;4972437;28;20850;-79
2022/05/21 09:54:56;;;;;;;2.30;1.20;;;23.20;99.90;;;;;;4959952;28;20065;-79
2022/05/21 09:57:38;;;;;;;2.78;1.23;;;23.40;99.90;;;;;;4972723;28;20023;-79
2022/05/21 10:00:25;;;;;;;2.92;1.27;;;23.60;99.90;;;;;;4972899;28;20058;-79
2022/05/21 10:02:54;;;;;;;2.30;1.20;;;23.70;99.90;;;;;;4959834;28;20364;-79
2022/05/21 10:05:25;;;;;;;2.80;1.30;;;23.70;99.90;;;;;;4972404;28;20110;-79
2022/05/21 10:11:07;;;;;;;1.90;1.20;;;24.00;99.90;;;;;;4974929;28;20041;-80
2022/05/21 10:13:52;;;;;;;1.58;1.23;;;24.20;99.90;;;;;;4974249;28;20116;-80
2022/05/21 10:16:53;;;;;;;2.15;1.02;;;24.20;99.90;;;;;;4991816;28;20550;-80
2022/05/21 10:19:41;;;;;;;3.05;1.02;;;24.30;99.90;;;;;;4991927;28;20026;-80
2022/05/21 10:22:12;;;;;;;1.85;1.10;;;24.50;99.90;;;;;;4991033;28;20098;-80
2022/05/21 10:25:01;;;;;;;5.65;1.10;;;24.70;99.90;;;;;;4991865;28;20026;-80
2022/05/21 10:27:44;;;;;;;3.58;1.00;;;24.90;98.30;;;;;;4991653;28;20027;-80
2022/05/21 10:30:27;;;;;;;1.70;1.08;;;24.90;96.70;;;;;;4991973;28;20026;-80
2022/05/21 10:33:19;;;;;;;1.40;0.90;;;24.70;95.20;;;;;;4994682;28;20030;-80
2022/05/21 10:36:12;;;;;;;2.47;0.70;;;24.50;94.60;;;;;;4976654;28;20046;-80
2022/05/21 10:38:59;;;;;;;2.38;0.75;;;24.80;93.80;;;;;;4991799;28;20145;-69
2022/05/21 10:41:28;;;;;;;2.42;0.88;;;25.00;92.20;;;;;;4995194;28;20034;-68
2022/05/21 10:44:01;;;;;;;6.38;0.98;;;25.10;90.10;;;;;;4997154;28;20033;-71
2022/05/21 10:46:35;;;;;;;2.03;0.88;;;25.00;90.70;;;;;;5007207;28;20429;-70
2022/05/21 10:49:19;;;;;;;2.40;0.80;;;25.20;89.50;;;;;;5011368;28;20466;-71
2022/05/21 10:52:22;;;;;;;2.78;0.70;;;25.30;80.60;;;;;;4979589;28;20420;-71
2022/05/21 10:55:14;;;;;;;2.75;0.70;;;25.00;78.70;;;;;;4936306;28;20320;-69
2022/05/21 10:58:01;;;;;;;2.63;1.10;;;25.00;82.90;;;;;;4991335;28;20046;-72
2022/05/21 11:00:39;;;;;;;1.70;0.70;;;25.00;79.50;;;;;;4976120;28;20118;-71
2022/05/21 11:03:27;;;;;;;1.20;0.80;;;24.90;81.10;;;;;;4993134;28;20439;-70
2022/05/21 11:06:07;;;;;;;2.30;0.70;;;25.50;80.00;;;;;;4993567;28;20023;-71
2022/05/21 11:08:53;;;;;;;1.50;0.75;;;25.80;77.60;;;;;;4993397;28;20109;-71
2022/05/21 11:11:21;;;;;;;0.68;0.60;;;25.70;77.40;;;;;;4993444;28;20018;-71
2022/05/21 11:14:07;;;;;;;1.02;0.60;;;25.70;78.40;;;;;;4993202;28;20109;-71
2022/05/21 11:16:49;;;;;;;1.02;0.70;;;25.40;78.40;;;;;;4984803;28;20296;-70
2022/05/21 11:19:34;;;;;;;1.48;0.70;;;25.30;76.70;;;;;;4974180;28;20030;-67
2022/05/21 11:22:12;;;;;;;3.45;0.90;;;25.50;81.80;;;;;;4976356;28;20039;-68
2022/05/21 11:24:45;;;;;;;2.40;0.90;;;25.60;78.20;;;;;;4987181;28;20022;-68
2022/05/21 11:27:24;;;;;;;2.60;0.80;;;25.80;76.70;;;;;;4995038;28;20117;-68
2022/05/21 11:29:57;;;;;;;2.30;0.98;;;26.10;77.30;;;;;;4982112;28;20027;-69
2022/05/21 11:38:21;;;;;;;1.10;0.63;;;26.50;73.80;;;;;;4976205;28;20081;-68
2022/05/21 11:47:14;;;;;;;1.23;0.70;;;26.80;73.30;;;;;;4975860;28;20097;-68
2022/05/21 11:49:44;;;;;;;2.63;0.70;;;26.80;77.90;;;;;;4994106;28;20033;-68
2022/05/21 11:52:27;;;;;;;2.30;0.75;;;26.90;74.60;;;;;;4997343;28;20026;-69
2022/05/21 11:54:53;;;;;;;2.03;0.70;;;26.70;74.20;;;;;;4984266;28;20045;-68
2022/05/21 11:57:37;;;;;;;2.50;1.23;;;26.70;75.90;;;;;;4997310;28;20464;-70
2022/05/21 12:00:05;;;;;;;4.65;1.02;;;26.70;73.80;;;;;;4998346;28;20084;-70
2022/05/21 12:02:34;;;;;;;1.73;0.70;;;27.00;74.00;;;;;;4997263;28;20467;-70
2022/05/21 12:05:08;;;;;;;3.85;0.75;;;27.50;76.10;;;;;;4994757;28;20476;-71
2022/05/21 12:07:43;;;;;;;1.70;0.82;;;27.70;75.10;;;;;;4974094;28;20383;-71
2022/05/21 12:10:24;;;;;;;3.50;0.95;;;27.90;73.30;;;;;;4999194;28;20049;-71
2022/05/21 12:13:15;;;;;;;3.13;0.80;;;28.30;72.80;;;;;;4997454;28;20035;-71
2022/05/21 12:15:45;;;;;;;1.25;0.90;;;28.20;71.20;;;;;;4957648;28;20019;-71
2022/05/21 12:18:41;;;;;;;1.65;0.75;;;28.20;71.60;;;;;;5005235;28;20037;-70
2022/05/21 12:21:13;;;;;;;1.80;0.80;;;28.10;71.00;;;;;;5002756;28;20023;-70
2022/05/21 12:23:41;;;;;;;1.77;0.70;;;28.30;70.80;;;;;;4977788;28;20077;-71
2022/05/21 12:26:30;;;;;;;2.00;0.80;;;28.50;71.70;;;;;;4999771;28;20036;-70
2022/05/21 12:29:12;;;;;;;1.67;0.90;;;28.60;68.10;;;;;;4974223;28;20046;-71
2022/05/21 12:31:44;;;;;;;1.38;0.77;;;28.80;67.20;;;;;;4968078;28;20055;-70
2022/05/21 12:34:12;;;;;;;1.70;0.90;;;28.70;67.70;;;;;;4968674;28;20054;-71
2022/05/21 12:37:15;;;;;;;1.45;0.70;;;28.70;68.30;;;;;;4968434;28;20031;-70
2022/05/21 12:40:01;;;;;;;1.60;0.73;;;28.90;68.20;;;;;;4970965;28;20077;-71
2022/05/21 12:42:31;;;;;;;2.42;0.80;;;29.00;67.30;;;;;;4987332;28;20030;-70
2022/05/21 12:44:57;;;;;;;1.65;0.90;;;28.70;65.50;;;;;;4989109;28;20369;-73
2022/05/21 12:47:33;;;;;;;0.95;0.70;;;28.70;64.80;;;;;;4989517;28;20281;-71
2022/05/21 12:50:03;;;;;;;0.80;0.70;;;28.30;65.30;;;;;;4988277;28;20097;-71
2022/05/21 12:52:50;;;;;;;1.67;0.65;;;28.40;66.40;;;;;;4974513;28;20033;-71
2022/05/21 12:55:26;;;;;;;1.58;0.80;;;28.60;67.10;;;;;;4979928;28;20026;-72
2022/05/21 12:58:13;;;;;;;3.17;0.90;;;28.80;62.50;;;;;;4987524;28;20430;-71
2022/05/21 13:00:54;;;;;;;1.80;0.60;;;28.80;65.50;;;;;;4972775;28;20045;-71
2022/05/21 13:03:22;;;;;;;2.00;0.80;;;29.10;65.60;;;;;;5007632;28;20761;-71
2022/05/21 13:05:47;;;;;;;1.48;0.52;;;28.80;61.20;;;;;;5007652;28;20029;-72
2022/05/21 13:08:13;;;;;;;2.25;0.70;;;28.60;61.10;;;;;;5007628;28;20041;-71
2022/05/21 13:10:49;;;;;;;1.08;0.60;;;28.50;61.60;;;;;;4996789;28;20022;-70
2022/05/21 13:13:20;;;;;;;2.90;0.57;;;28.30;62.10;;;;;;4998334;28;20136;-71
2022/05/21 13:15:53;;;;;;;3.13;0.70;;;28.30;62.30;;;;;;5007228;28;20037;-71
2022/05/21 13:18:38;;;;;;;4.22;0.80;;;28.20;63.00;;;;;;5003472;28;20037;-71
2022/05/21 13:21:34;;;;;;;3.45;0.60;;;27.90;61.20;;;;;;5003421;28;20029;-71
2022/05/21 13:24:23;;;;;;;0.93;0.70;;;27.70;62.70;;;;;;5006488;28;20056;-71
2022/05/21 13:27:13;;;;;;;3.63;0.77;;;27.60;63.30;;;;;;5004064;28;20042;-71
2022/05/21 13:29:40;;;;;;;1.15;0.70;;;27.40;63.60;;;;;;4999539;28;20026;-71
2022/05/21 13:32:19;;;;;;;2.00;0.70;;;27.60;66.00;;;;;;5007457;28;20018;-71
2022/05/21 13:34:44;;;;;;;3.88;0.80;;;27.80;68.30;;;;;;4999305;28;20138;-70
2022/05/21 13:37:11;;;;;;;1.50;0.70;;;27.70;63.90;;;;;;4968243;28;20031;-71
2022/05/21 13:39:37;;;;;;;2.30;0.73;;;27.70;64.70;;;;;;4968220;28;20022;-71
2022/05/21 13:42:10;;;;;;;2.15;1.00;;;27.50;63.20;;;;;;4983865;28;20434;-71
2022/05/21 13:44:39;;;;;;;2.05;0.75;;;27.20;64.70;;;;;;5006505;28;20123;-71